KDNN/DNN METAR and TAF weather

Enter ICAO airport designator
Station Type Date Time Source
KDNN METAR 2020/11/27 02:55 UTC NOAA

KDNN 270255Z AUTO 00000KT 10SM CLR 09/08 A3012 RMK AO2


Station Type Date Time Source
KDNN Decoded METAR 2020/11/27 02:55 UTC NOAA

Dalton, Dalton Municipal Airport, GA, United States (KDNN) 34-43-18N 084-52-09W
Nov 26, 2020 - 09:55 PM EST / 2020.11.27 0255 UTC
Wind: Calm:0
Visibility: 10 mile(s):0
Sky conditions: clear
Temperature: 48 F (9 C)
Dew Point: 46 F (8 C)
Relative Humidity: 93%
Pressure (altimeter): 30.12 in. Hg (1019 hPa)
ob: KDNN 270255Z AUTO 00000KT 10SM CLR 09/08 A3012 RMK AO2
cycle: 3

Station Type Date Time Source
KDNN TAF UTC NOAA

Error!

Example: see airport list